createdAt,value
2022-08-05T00:02:07.868Z,19.58
2022-08-05T00:06:01.593Z,19.54
2022-08-05T00:08:37.538Z,19.52
2022-08-05T00:11:56.123Z,19.39
2022-08-05T00:15:54.166Z,19.19
2022-08-05T00:18:22.630Z,18.99
2022-08-05T00:21:36.441Z,18.82
2022-08-05T00:24:55.217Z,18.62
2022-08-05T00:28:06.399Z,18.53
2022-08-05T00:31:53.635Z,18.44
2022-08-05T00:34:54.217Z,18.36
2022-08-05T00:37:54.100Z,18.36
2022-08-05T00:41:11.825Z,18.39
2022-08-05T00:44:30.810Z,18.39
2022-08-05T00:47:55.984Z,18.29
2022-08-05T00:50:57.397Z,18.27
2022-08-05T00:54:11.546Z,18.31
2022-08-05T00:57:38.257Z,18.40
2022-08-05T01:00:43.597Z,18.44
2022-08-05T01:03:58.728Z,18.51
2022-08-05T01:07:15.742Z,18.54
2022-08-05T01:10:35.881Z,18.52
2022-08-05T01:13:58.951Z,18.54
2022-08-05T01:17:11.847Z,18.56
2022-08-05T01:20:29.877Z,18.56
2022-08-05T01:23:52.988Z,18.54
2022-08-05T01:27:19.078Z,18.47
2022-08-05T01:30:34.545Z,18.38
2022-08-05T01:33:49.234Z,18.37
2022-08-05T01:37:03.566Z,18.38
2022-08-05T01:40:19.628Z,18.37
2022-08-05T01:43:35.317Z,18.34
2022-08-05T01:46:50.241Z,18.29
2022-08-05T01:50:08.533Z,18.27
2022-08-05T01:53:54.630Z,18.24
2022-08-05T01:58:12.870Z,18.23
2022-08-05T02:00:04.380Z,18.16
2022-08-05T02:03:28.884Z,18.12
2022-08-05T02:06:39.205Z,18.06
2022-08-05T02:09:53.064Z,18.01
2022-08-05T02:13:16.016Z,17.99
2022-08-05T02:16:29.881Z,17.99
2022-08-05T02:19:48.674Z,17.96
2022-08-05T02:23:08.702Z,17.87
2022-08-05T02:26:26.725Z,17.85
2022-08-05T02:30:00.068Z,17.82
2022-08-05T02:33:01.018Z,17.76
2022-08-05T02:36:17.617Z,17.75
2022-08-05T02:39:35.265Z,17.75
2022-08-05T02:42:53.924Z,17.59
2022-08-05T02:46:09.087Z,17.48
2022-08-05T02:49:25.540Z,17.40
2022-08-05T02:52:40.422Z,17.37
2022-08-05T02:56:02.105Z,17.29
2022-08-05T02:59:12.330Z,17.19
2022-08-05T03:02:28.768Z,17.24
2022-08-05T03:06:54.599Z,17.29
2022-08-05T03:09:00.825Z,17.35
2022-08-05T03:12:15.823Z,17.30
2022-08-05T03:15:30.977Z,17.18
2022-08-05T03:18:47.585Z,17.12
2022-08-05T03:22:04.666Z,17.14
2022-08-05T03:26:03.681Z,17.19
2022-08-05T03:28:37.523Z,17.22
2022-08-05T03:31:55.337Z,17.27
2022-08-05T03:35:10.575Z,17.26
2022-08-05T03:38:33.370Z,17.26
2022-08-05T03:41:45.418Z,17.30
2022-08-05T03:44:57.520Z,17.29
2022-08-05T03:48:12.085Z,17.28
2022-08-05T03:52:37.213Z,17.25
2022-08-05T03:55:49.881Z,17.19
2022-08-05T03:58:05.192Z,17.15
2022-08-05T04:01:20.764Z,17.17
2022-08-05T04:04:37.265Z,17.19
2022-08-05T04:07:57.955Z,17.21
2022-08-05T04:11:09.903Z,17.27
2022-08-05T04:14:30.075Z,17.31
2022-08-05T04:17:56.705Z,17.36
2022-08-05T04:21:01.118Z,17.37
2022-08-05T04:24:19.540Z,17.43
2022-08-05T04:27:43.767Z,17.44
2022-08-05T04:30:50.286Z,17.34
2022-08-05T04:34:31.357Z,17.36
2022-08-05T04:37:21.064Z,17.45
2022-08-05T04:40:37.070Z,17.51
2022-08-05T04:43:52.064Z,17.61
2022-08-05T04:47:09.467Z,17.69
2022-08-05T04:50:37.185Z,17.74
2022-08-05T04:53:39.097Z,17.77
2022-08-05T04:56:56.300Z,17.77
2022-08-05T05:00:08.904Z,17.74
2022-08-05T05:03:22.760Z,17.78
2022-08-05T05:06:44.246Z,17.87
2022-08-05T05:09:53.861Z,17.97
2022-08-05T05:13:07.868Z,18.06
2022-08-05T05:16:24.746Z,18.16
2022-08-05T05:19:44.403Z,18.25
2022-08-05T05:22:57.246Z,18.33
2022-08-05T05:26:12.299Z,18.39
2022-08-05T05:29:41.111Z,18.53
2022-08-05T05:32:41.507Z,18.65
2022-08-05T05:35:56.260Z,18.87
2022-08-05T05:39:11.827Z,18.99
2022-08-05T05:42:25.576Z,19.11
2022-08-05T05:45:39.176Z,19.28
2022-08-05T05:48:55.254Z,19.45
2022-08-05T05:52:11.269Z,19.62
2022-08-05T05:55:51.852Z,19.77
2022-08-05T05:58:41.766Z,19.94
2022-08-05T06:01:57.831Z,20.08
2022-08-05T06:05:17.009Z,20.20
2022-08-05T06:08:32.642Z,20.31
2022-08-05T06:11:58.951Z,20.37
2022-08-05T06:15:06.047Z,20.48
2022-08-05T06:18:21.880Z,20.59
2022-08-05T06:21:42.202Z,20.67
2022-08-05T06:24:56.222Z,20.79
2022-08-05T06:28:21.072Z,20.97
2022-08-05T06:31:30.301Z,21.15
2022-08-05T06:34:41.456Z,21.23
2022-08-05T06:37:58.075Z,21.27
2022-08-05T06:41:11.687Z,21.41
2022-08-05T06:44:26.088Z,21.53
2022-08-05T06:48:37.283Z,21.67
2022-08-05T06:50:58.665Z,21.86
2022-08-05T06:54:18.262Z,21.99
2022-08-05T06:57:58.011Z,22.11
2022-08-05T07:00:45.619Z,22.30
2022-08-05T07:04:01.103Z,22.38
2022-08-05T07:07:16.469Z,22.50
2022-08-05T07:10:32.299Z,22.64
2022-08-05T07:14:00.745Z,22.88
2022-08-05T07:17:58.472Z,22.96
2022-08-05T07:20:33.367Z,23.10
2022-08-05T07:23:50.058Z,23.29
2022-08-05T07:27:02.939Z,23.42
2022-08-05T07:30:27.321Z,23.56
2022-08-05T07:33:35.212Z,23.73
2022-08-05T07:36:51.266Z,23.88
2022-08-05T07:40:31.818Z,24.05
2022-08-05T07:43:20.765Z,24.22
2022-08-05T07:46:36.855Z,24.39
2022-08-05T07:49:54.557Z,24.61
2022-08-05T07:53:08.672Z,24.87
2022-08-05T07:56:39.175Z,25.13
2022-08-05T07:59:41.131Z,25.40
2022-08-05T08:03:14.939Z,25.67
2022-08-05T08:06:10.554Z,25.97
2022-08-05T08:09:29.515Z,26.37
2022-08-05T08:12:49.579Z,26.87
2022-08-05T08:16:49.828Z,27.36
2022-08-05T08:20:00.469Z,27.75
2022-08-05T08:22:35.240Z,28.21
2022-08-05T08:25:59.831Z,28.58
2022-08-05T08:29:21.919Z,28.92
2022-08-05T08:32:27.800Z,29.24
2022-08-05T08:35:41.213Z,29.76
2022-08-05T08:38:55.102Z,30.10
2022-08-05T08:42:32.418Z,30.52
2022-08-05T08:45:29.608Z,30.69
2022-08-05T08:49:07.471Z,30.75
2022-08-05T08:52:13.141Z,31.12
2022-08-05T08:55:31.933Z,31.28
2022-08-05T08:58:44.461Z,31.54
2022-08-05T09:01:57.137Z,31.73
2022-08-05T09:05:17.798Z,32.07
2022-08-05T09:08:30.251Z,32.50
2022-08-05T09:11:53.760Z,32.82
2022-08-05T09:15:05.992Z,32.89
2022-08-05T09:18:16.473Z,33.06
2022-08-05T09:22:31.219Z,33.17
2022-08-05T09:24:46.351Z,33.24
2022-08-05T09:28:04.537Z,33.40
2022-08-05T09:32:38.509Z,33.50
2022-08-05T09:34:36.607Z,33.64
2022-08-05T09:38:16.488Z,33.82
2022-08-05T09:41:16.182Z,33.94
2022-08-05T09:44:45.506Z,33.91
2022-08-05T09:48:01.047Z,33.81
2022-08-05T09:51:15.975Z,33.84
2022-08-05T09:54:40.034Z,33.51
2022-08-05T09:57:54.615Z,33.31
2022-08-05T10:01:15.015Z,33.27
2022-08-05T10:04:28.518Z,33.28
2022-08-05T10:08:10.567Z,33.21
2022-08-05T10:11:20.265Z,33.20
2022-08-05T10:14:36.721Z,33.12
2022-08-05T10:17:56.715Z,32.93
2022-08-05T10:21:12.001Z,32.96
2022-08-05T10:24:26.978Z,32.74
2022-08-05T10:28:13.458Z,32.78
2022-08-05T10:32:49.685Z,32.87
2022-08-05T10:34:14.852Z,32.80
2022-08-05T10:37:40.073Z,32.70
2022-08-05T10:40:52.440Z,32.65
2022-08-05T10:44:10.746Z,32.53
2022-08-05T10:47:31.256Z,32.59
2022-08-05T10:50:53.328Z,32.50
2022-08-05T10:54:28.250Z,32.37
2022-08-05T10:57:34.242Z,32.23
2022-08-05T11:00:55.008Z,32.19
2022-08-05T11:04:15.782Z,32.13
2022-08-05T11:07:33.011Z,32.01
2022-08-05T11:10:50.070Z,31.86
2022-08-05T11:14:03.780Z,31.75
2022-08-05T11:17:59.101Z,31.59
2022-08-05T11:20:54.015Z,31.38
2022-08-05T11:24:30.761Z,31.20
2022-08-05T11:27:51.926Z,30.98
2022-08-05T11:31:58.744Z,30.81
2022-08-05T11:34:53.986Z,30.66
2022-08-05T11:38:26.358Z,30.66
2022-08-05T11:41:54.674Z,30.63
2022-08-05T11:44:53.867Z,30.54
2022-08-05T11:48:05.947Z,30.49
2022-08-05T11:51:43.672Z,30.47
2022-08-05T11:54:40.331Z,30.44
2022-08-05T11:58:10.254Z,30.31
2022-08-05T12:01:12.013Z,30.32
2022-08-05T12:04:26.840Z,30.18
2022-08-05T12:08:03.609Z,30.19
2022-08-05T12:10:59.138Z,30.24
2022-08-05T12:14:14.937Z,30.29
2022-08-05T12:18:00.853Z,30.20
2022-08-05T12:20:46.495Z,30.18
2022-08-05T12:24:05.216Z,30.16
2022-08-05T12:27:33.351Z,30.02
2022-08-05T12:30:50.001Z,29.97
2022-08-05T12:34:04.841Z,29.94
2022-08-05T12:37:33.407Z,29.89
2022-08-05T12:40:48.286Z,29.87
2022-08-05T12:44:05.972Z,29.81
2022-08-05T12:47:33.164Z,29.77
2022-08-05T12:50:47.999Z,29.69
2022-08-05T12:54:16.905Z,29.72
2022-08-05T12:57:26.704Z,29.73
2022-08-05T13:02:00.256Z,29.69
2022-08-05T13:04:02.632Z,29.66
2022-08-05T13:07:54.723Z,29.63
2022-08-05T13:10:50.147Z,29.60
2022-08-05T13:14:07.258Z,29.59
2022-08-05T13:17:25.007Z,29.60
2022-08-05T13:20:43.150Z,29.58
2022-08-05T13:23:56.860Z,29.57
2022-08-05T13:27:17.081Z,29.56
2022-08-05T13:30:34.810Z,29.51
2022-08-05T13:34:23.039Z,29.43
2022-08-05T13:37:03.112Z,29.32
2022-08-05T13:40:35.685Z,29.21
2022-08-05T13:43:44.529Z,29.14
2022-08-05T13:47:04.592Z,29.17
2022-08-05T13:50:14.837Z,29.19
2022-08-05T13:53:25.893Z,29.27
2022-08-05T13:56:45.318Z,29.31
2022-08-05T13:59:59.392Z,29.31
2022-08-05T14:03:12.443Z,29.30
2022-08-05T14:06:27.217Z,29.36
2022-08-05T14:09:45.980Z,29.45
2022-08-05T14:12:57.745Z,29.47
2022-08-05T14:16:12.064Z,29.49
2022-08-05T14:19:27.652Z,29.49
2022-08-05T14:22:49.988Z,29.45
2022-08-05T14:25:59.875Z,29.41
2022-08-05T14:29:16.489Z,29.37
2022-08-05T14:32:31.910Z,29.32
2022-08-05T14:35:50.380Z,29.33
2022-08-05T14:39:02.889Z,29.39
2022-08-05T14:42:29.374Z,29.37
2022-08-05T14:45:32.792Z,29.39
2022-08-05T14:48:49.323Z,29.46
2022-08-05T14:52:01.834Z,29.49
2022-08-05T14:55:16.354Z,29.51
2022-08-05T14:58:31.848Z,29.54
2022-08-05T15:01:48.703Z,29.54
2022-08-05T15:05:08.491Z,29.52
2022-08-05T15:08:58.353Z,29.49
2022-08-05T15:11:52.348Z,29.42
2022-08-05T15:14:50.746Z,29.42
2022-08-05T15:18:05.629Z,29.42
2022-08-05T15:21:20.925Z,29.39
2022-08-05T15:24:35.060Z,29.40
2022-08-05T15:27:52.269Z,29.49
2022-08-05T15:31:07.203Z,29.54
2022-08-05T15:34:32.216Z,29.53
2022-08-05T15:38:09.336Z,29.50
2022-08-05T15:41:04.466Z,29.57
2022-08-05T15:44:09.928Z,29.56
2022-08-05T15:47:23.883Z,29.50
2022-08-05T15:50:37.770Z,29.48
2022-08-05T15:53:52.559Z,29.47
2022-08-05T15:57:07.463Z,29.45
2022-08-05T16:00:26.167Z,29.41
2022-08-05T16:03:41.038Z,29.43
2022-08-05T16:06:53.701Z,29.41
2022-08-05T16:10:11.493Z,29.40
2022-08-05T16:13:32.030Z,29.40
2022-08-05T16:16:40.407Z,29.42
2022-08-05T16:20:04.778Z,29.44
2022-08-05T16:23:09.523Z,29.43
2022-08-05T16:26:26.479Z,29.43
2022-08-05T16:29:40.006Z,29.40
2022-08-05T16:32:56.941Z,29.36
2022-08-05T16:36:11.502Z,29.32
2022-08-05T16:40:04.841Z,29.31
2022-08-05T16:42:41.010Z,29.31
2022-08-05T16:46:04.754Z,29.38
2022-08-05T16:49:12.990Z,29.36
2022-08-05T16:52:32.603Z,29.33
2022-08-05T16:55:46.396Z,29.30
2022-08-05T16:59:07.513Z,29.32
2022-08-05T17:02:16.123Z,29.31
2022-08-05T17:05:31.709Z,29.24
2022-08-05T17:08:53.077Z,29.24
2022-08-05T17:12:04.249Z,29.18
2022-08-05T17:15:19.360Z,29.12
2022-08-05T17:18:33.711Z,29.08
2022-08-05T17:21:51.578Z,29.01
2022-08-05T17:25:22.306Z,28.95
2022-08-05T17:28:20.796Z,28.87
2022-08-05T17:31:41.284Z,28.83
2022-08-05T17:34:52.263Z,28.78
2022-08-05T17:38:07.150Z,28.74
2022-08-05T17:42:17.323Z,28.68
2022-08-05T17:44:37.719Z,28.63
2022-08-05T17:47:55.736Z,28.57
2022-08-05T17:51:09.182Z,28.52
2022-08-05T17:54:23.929Z,28.48
2022-08-05T17:57:37.720Z,28.44
2022-08-05T18:00:54.160Z,28.40
2022-08-05T18:04:11.752Z,28.36
2022-08-05T18:07:25.551Z,28.32
2022-08-05T18:10:40.893Z,28.26
2022-08-05T18:13:56.723Z,28.22
2022-08-05T18:18:01.654Z,28.17
2022-08-05T18:20:31.582Z,28.07
2022-08-05T18:23:45.929Z,27.96
2022-08-05T18:27:00.148Z,27.74
2022-08-05T18:30:15.723Z,27.59
2022-08-05T18:33:46.566Z,27.49
2022-08-05T18:36:46.092Z,27.31
2022-08-05T18:40:34.070Z,27.05
2022-08-05T18:43:17.274Z,26.79
2022-08-05T18:46:32.211Z,26.55
2022-08-05T18:50:00.425Z,26.28
2022-08-05T18:53:20.834Z,26.08
2022-08-05T18:56:31.388Z,25.92
2022-08-05T19:00:01.462Z,25.79
2022-08-05T19:03:04.761Z,25.62
2022-08-05T19:06:22.361Z,25.49
2022-08-05T19:09:40.211Z,25.41
2022-08-05T19:12:50.787Z,25.23
2022-08-05T19:16:04.723Z,25.12
2022-08-05T19:19:20.969Z,24.96
2022-08-05T19:22:33.887Z,24.82
2022-08-05T19:25:50.782Z,24.71
2022-08-05T19:29:06.991Z,24.60
2022-08-05T19:32:26.130Z,24.49
2022-08-05T19:35:56.389Z,24.35
2022-08-05T19:38:58.997Z,24.27
2022-08-05T19:42:15.131Z,24.25
2022-08-05T19:45:30.568Z,24.22
2022-08-05T19:48:44.828Z,24.15
2022-08-05T19:52:08.505Z,24.05
2022-08-05T19:56:14.416Z,23.93
2022-08-05T19:58:53.412Z,23.86
2022-08-05T20:01:49.979Z,23.77
2022-08-05T20:05:04.991Z,23.72
2022-08-05T20:08:20.446Z,23.72
2022-08-05T20:11:37.736Z,23.73
2022-08-05T20:14:52.858Z,23.69
2022-08-05T20:18:33.721Z,23.66
2022-08-05T20:21:26.698Z,23.65
2022-08-05T20:24:40.759Z,23.59
2022-08-05T20:27:54.284Z,23.55
2022-08-05T20:31:11.322Z,23.44
2022-08-05T20:34:24.931Z,23.39
2022-08-05T20:38:05.759Z,23.38
2022-08-05T20:40:54.097Z,23.31
2022-08-05T20:44:19.101Z,23.23
2022-08-05T20:47:31.670Z,23.23
2022-08-05T20:50:42.573Z,23.18
2022-08-05T20:54:01.255Z,23.12
2022-08-05T20:57:14.307Z,23.02
2022-08-05T21:00:41.204Z,22.99
2022-08-05T21:03:47.963Z,22.93
2022-08-05T21:06:59.031Z,22.84
2022-08-05T21:10:14.176Z,22.77
2022-08-05T21:13:48.021Z,22.72
2022-08-05T21:16:44.720Z,22.65
2022-08-05T21:19:58.695Z,22.61
2022-08-05T21:23:13.476Z,22.64
2022-08-05T21:26:29.508Z,22.61
2022-08-05T21:29:48.242Z,22.45
2022-08-05T21:32:59.048Z,22.36
2022-08-05T21:36:13.164Z,22.32
2022-08-05T21:39:29.519Z,22.32
2022-08-05T21:42:45.118Z,22.22
2022-08-05T21:46:00.474Z,22.12
2022-08-05T21:49:48.301Z,22.07
2022-08-05T21:52:29.953Z,22.03
2022-08-05T21:56:05.247Z,22.01
2022-08-05T21:59:00.677Z,21.92
2022-08-05T22:02:16.057Z,21.85
2022-08-05T22:05:29.977Z,21.84
2022-08-05T22:08:45.459Z,21.79
2022-08-05T22:12:00.922Z,21.80
2022-08-05T22:15:56.658Z,21.79
2022-08-05T22:18:34.615Z,21.79
2022-08-05T22:21:48.140Z,21.77
2022-08-05T22:25:21.292Z,21.70
2022-08-05T22:28:33.056Z,21.63
2022-08-05T22:31:55.140Z,21.60
2022-08-05T22:35:04.619Z,21.58
2022-08-05T22:38:19.683Z,21.58
2022-08-05T22:42:11.043Z,21.52
2022-08-05T22:44:56.472Z,21.45
2022-08-05T22:48:05.339Z,21.43
2022-08-05T22:51:22.740Z,21.40
2022-08-05T22:54:37.807Z,21.37
2022-08-05T22:57:52.587Z,21.35
2022-08-05T23:01:06.612Z,21.30
2022-08-05T23:04:20.335Z,21.28
2022-08-05T23:07:45.473Z,21.26
2022-08-05T23:10:54.702Z,21.23
2022-08-05T23:14:05.777Z,21.17
2022-08-05T23:17:34.656Z,21.14
2022-08-05T23:20:45.662Z,21.11
2022-08-05T23:23:59.202Z,21.13
2022-08-05T23:27:13.240Z,21.10
2022-08-05T23:30:29.148Z,21.06
2022-08-05T23:34:03.276Z,21.05
2022-08-05T23:36:58.963Z,20.98
2022-08-05T23:40:14.831Z,20.96
2022-08-05T23:44:03.182Z,20.90
2022-08-05T23:46:45.100Z,20.92
2022-08-05T23:49:58.745Z,20.90
2022-08-05T23:53:22.588Z,20.83
2022-08-05T23:56:29.235Z,20.78
